Time;durP1;ratioP1;P1;durP2;ratioP2;P2;SDS_P1;SDS_P2;PMS_P1;PMS_P2;Temp;Humidity;BMP_temperature;BMP_pressure;BME280_temperature;BME280_humidity;BME280_pressure;Samples;Min_cycle;Max_cycle;Signal;HPM_P1;HPM_P2
2022/06/15 00:04:47;;;;;;;1.63;0.57;;;;;;;20.98;37.11;101809.75;16136788;19;129787;-55
2022/06/15 00:10:09;;;;;;;5.82;0.60;;;;;;;20.97;37.38;101805.28;16138481;19;129267;-56
2022/06/15 00:15:31;;;;;;;3.15;0.50;;;;;;;20.96;37.51;101803.59;16137358;19;131404;-56
2022/06/15 00:20:57;;;;;;;0.98;0.50;;;;;;;20.96;37.41;101806.38;16133397;19;130151;-54
2022/06/15 00:26:19;;;;;;;1.40;0.60;;;;;;;20.95;37.14;101799.13;16136476;19;129139;-57
2022/06/15 00:31:41;;;;;;;2.05;0.68;;;;;;;20.94;37.45;101797.41;16137120;19;129427;-56
2022/06/15 00:37:04;;;;;;;1.98;0.63;;;;;;;20.94;37.21;101797.41;16132718;19;129381;-57
2022/06/15 00:42:30;;;;;;;2.40;0.57;;;;;;;20.94;37.29;101797.41;16131568;19;129494;-56
2022/06/15 00:47:52;;;;;;;0.93;0.50;;;;;;;20.90;36.98;101786.81;16135587;19;129484;-56
2022/06/15 00:53:14;;;;;;;0.90;0.30;;;;;;;20.90;37.00;101789.56;16135106;19;129922;-55
2022/06/15 00:58:43;;;;;;;1.58;0.60;;;;;;;20.90;37.25;101792.34;16130483;19;129343;-54
2022/06/15 01:04:05;;;;;;;0.73;0.50;;;;;;;20.89;37.57;101781.47;16133795;19;131278;-54
2022/06/15 01:09:30;;;;;;;2.08;0.60;;;;;;;20.88;37.20;101772.28;16148540;19;129714;-55
2022/06/15 01:15:26;;;;;;;1.73;0.55;;;;;;;20.89;37.48;101782.31;16148194;19;128943;-55
2022/06/15 01:20:57;;;;;;;0.80;0.43;;;;;;;20.87;37.04;101778.06;16145419;19;130371;-54
2022/06/15 01:26:44;;;;;;;1.33;0.50;;;;;;;20.87;37.20;101778.06;16147882;19;129703;-55
2022/06/15 01:32:15;;;;;;;1.98;0.73;;;;;;;20.86;37.08;101774.44;16148499;19;129534;-54
2022/06/15 01:37:56;;;;;;;0.70;0.30;;;;;;;20.86;37.59;101768.06;16147431;19;128970;-56
2022/06/15 01:43:24;;;;;;;1.80;0.73;;;;;;;20.84;37.43;101765.50;16139273;19;129537;-56
2022/06/15 01:48:48;;;;;;;3.55;0.50;;;;;;;20.83;37.64;101758.22;16147302;19;130115;-56
2022/06/15 01:54:40;;;;;;;0.80;0.50;;;;;;;20.83;37.27;101757.41;16145605;19;129561;-57
2022/06/15 02:00:07;;;;;;;1.40;0.47;;;;;;;20.82;37.40;101753.75;16145247;19;129399;-55
2022/06/15 02:05:51;;;;;;;0.85;0.50;;;;;;;20.81;37.50;101743.72;16144373;19;129331;-57
2022/06/15 02:11:40;;;;;;;0.65;0.40;;;;;;;20.81;37.41;101738.16;16144112;19;130086;-56
2022/06/15 02:17:08;;;;;;;1.52;0.30;;;;;;;20.79;37.64;101740.34;16143645;19;129598;-56
2022/06/15 02:22:33;;;;;;;1.02;0.43;;;;;;;20.79;37.23;101745.94;16139241;19;129282;-56
2022/06/15 02:27:55;;;;;;;1.57;0.50;;;;;;;20.77;37.66;101736.97;16145214;19;130254;-54
2022/06/15 02:33:26;;;;;;;1.50;0.50;;;;;;;20.78;37.29;101741.44;16143206;19;129869;-56
2022/06/15 02:38:49;;;;;;;1.25;0.57;;;;;;;20.76;37.29;101740.84;16144654;19;128887;-57
2022/06/15 02:44:16;;;;;;;1.75;0.57;;;;;;;20.77;37.54;101738.88;16142483;19;129743;-57
2022/06/15 02:49:39;;;;;;;2.70;0.60;;;;;;;20.75;37.56;101733.53;16141788;19;129375;-57
2022/06/15 02:55:06;;;;;;;1.88;0.60;;;;;;;20.76;37.36;101732.50;16139199;19;130178;-56
2022/06/15 03:00:28;;;;;;;1.75;0.47;;;;;;;20.73;37.61;101736.59;16138442;19;130189;-55
2022/06/15 03:05:50;;;;;;;1.40;0.55;;;;;;;20.73;37.61;101724.59;16131319;19;130899;-56
2022/06/15 03:11:12;;;;;;;1.30;0.60;;;;;;;20.72;37.29;101732.09;16137324;19;130125;-56
2022/06/15 03:16:34;;;;;;;2.30;0.60;;;;;;;20.70;37.37;101731.50;16141136;19;129115;-56
2022/06/15 03:21:56;;;;;;;1.45;0.40;;;;;;;20.69;37.68;101738.13;16136604;19;129551;-53
2022/06/15 03:27:18;;;;;;;1.83;0.65;;;;;;;20.69;37.61;101731.72;16139705;19;129642;-52
2022/06/15 03:32:40;;;;;;;2.13;0.60;;;;;;;20.68;37.41;101730.03;16141491;19;129266;-56
2022/06/15 03:38:03;;;;;;;2.80;0.70;;;;;;;20.67;37.21;101726.41;16140182;19;128879;-55
2022/06/15 03:43:25;;;;;;;1.02;0.70;;;;;;;20.66;37.34;101729.44;16135165;19;129275;-56
2022/06/15 03:48:50;;;;;;;2.50;0.60;;;;;;;20.65;37.15;101727.75;16134644;19;129584;-57
2022/06/15 03:54:11;;;;;;;1.77;0.52;;;;;;;20.65;37.25;101734.13;16134933;19;131510;-56
2022/06/15 03:59:33;;;;;;;1.30;0.65;;;;;;;20.64;37.42;101734.38;16138934;19;129359;-55
2022/06/15 04:04:55;;;;;;;2.20;0.70;;;;;;;20.65;37.36;101733.31;16135852;19;130656;-54
2022/06/15 04:10:17;;;;;;;2.63;0.90;;;;;;;20.64;37.60;101737.16;16139145;19;130857;-54
2022/06/15 04:15:39;;;;;;;1.98;0.80;;;;;;;20.63;37.34;101741.03;16139234;19;129697;-54
2022/06/15 04:21:00;;;;;;;1.10;0.60;;;;;;;20.63;37.40;101743.81;16136145;19;128873;-56
2022/06/15 04:26:22;;;;;;;1.40;0.70;;;;;;;20.62;37.48;101742.94;16136741;19;130407;-57
2022/06/15 04:31:44;;;;;;;2.30;0.77;;;;;;;20.60;37.55;101743.19;16133065;19;132810;-56
2022/06/15 04:37:06;;;;;;;2.13;0.73;;;;;;;20.60;37.38;101743.19;16136365;19;129290;-56
2022/06/15 04:42:28;;;;;;;0.82;0.65;;;;;;;20.60;37.60;101743.19;16148230;19;129764;-58
2022/06/15 04:47:50;;;;;;;1.33;0.77;;;;;;;20.61;37.52;101744.06;16151599;19;129498;-56
2022/06/15 04:53:12;;;;;;;1.55;0.65;;;;;;;20.60;37.65;101742.38;16149513;19;129021;-57
2022/06/15 04:58:34;;;;;;;2.05;0.60;;;;;;;20.62;37.51;101750.47;16149322;19;129618;-56
2022/06/15 05:03:55;;;;;;;1.25;0.75;;;;;;;20.59;37.13;101749.84;16145934;19;131344;-56
2022/06/15 05:09:18;;;;;;;3.17;1.00;;;;;;;20.60;37.51;101754.31;16146851;19;129274;-56
2022/06/15 05:14:39;;;;;;;3.67;0.80;;;;;;;20.60;37.28;101748.75;16151136;19;129686;-56
2022/06/15 05:20:01;;;;;;;1.77;0.80;;;;;;;20.60;37.44;101751.53;16148700;19;128885;-58
2022/06/15 05:25:24;;;;;;;2.17;0.80;;;;;;;20.59;37.41;101755.41;16150249;19;129157;-55
2022/06/15 05:30:45;;;;;;;8.23;0.98;;;;;;;20.62;37.32;101744.91;16149078;19;129418;-55
2022/06/15 05:36:11;;;;;;;2.83;0.93;;;;;;;20.65;37.29;101752.75;16150025;19;129657;-56
2022/06/15 05:41:33;;;;;;;;;;;;;;;20.66;37.10;101746.13;16149691;19;129243;-56
2022/06/15 05:46:59;;;;;;;2.10;0.80;;;;;;;20.72;37.12;101750.72;16143695;19;130111;-56
2022/06/15 05:52:21;;;;;;;6.25;0.90;;;;;;;20.73;37.03;101752.41;16147512;19;128830;-56
2022/06/15 05:57:43;;;;;;;2.53;0.90;;;;;;;20.75;37.14;101753.00;16148200;19;129855;-54
2022/06/15 06:03:05;;;;;;;5.28;1.10;;;;;;;20.78;37.30;101758.13;16143042;19;129968;-56
2022/06/15 06:08:27;;;;;;;4.20;1.00;;;;;;;20.82;36.92;101750.16;16144720;19;130746;-56
2022/06/15 06:13:49;;;;;;;2.30;0.80;;;;;;;20.83;37.17;101752.69;16148298;19;129850;-57
2022/06/15 06:19:13;;;;;;;3.25;0.75;;;;;;;20.85;37.13;101755.25;16147686;19;129773;-56
2022/06/15 06:24:35;;;;;;;2.05;0.90;;;;;;;20.87;37.74;101756.69;16141966;19;129638;-56
2022/06/15 06:29:57;;;;;;;1.17;0.68;;;;;;;20.88;37.48;101752.81;16141735;19;128883;-53
2022/06/15 06:35:18;;;;;;;3.58;0.90;;;;;;;20.90;37.27;101758.97;16147828;19;129631;-51
2022/06/15 06:40:40;;;;;;;3.40;0.85;;;;;;;20.94;37.24;101764.03;16146305;19;130245;-54
2022/06/15 06:46:02;;;;;;;2.35;0.75;;;;;;;20.95;37.38;101758.25;16142604;19;129033;-54
2022/06/15 06:51:25;;;;;;;2.60;0.80;;;;;;;20.97;37.88;101766.34;16145709;19;130723;-56
2022/06/15 06:56:47;;;;;;;3.65;0.77;;;;;;;20.99;37.63;101769.75;16144581;19;130073;-51
2022/06/15 07:02:10;;;;;;;2.58;1.00;;;;;;;21.01;37.32;101771.19;16139071;19;128951;-56
2022/06/15 07:07:33;;;;;;;3.03;1.10;;;;;;;21.02;37.38;101766.47;16138554;19;129076;-54
2022/06/15 07:12:54;;;;;;;1.83;0.80;;;;;;;21.05;37.61;101777.09;16144389;19;129633;-55
2022/06/15 07:18:19;;;;;;;1.40;0.50;;;;;;;21.08;37.39;101775.78;16146789;19;129037;-56
2022/06/15 07:23:43;;;;;;;3.20;0.85;;;;;;;21.08;37.44;101784.97;16148324;19;128945;-56
2022/06/15 07:29:05;;;;;;;6.55;0.95;;;;;;;21.09;37.35;101772.75;16144347;19;129093;-55
2022/06/15 07:34:27;;;;;;;3.45;1.00;;;;;;;21.11;37.38;101776.16;16143433;19;129291;-56
2022/06/15 07:39:49;;;;;;;2.97;1.00;;;;;;;21.13;37.47;101778.66;16137179;19;129447;-55
2022/06/15 07:45:13;;;;;;;2.00;0.77;;;;;;;21.15;37.21;101788.50;16133233;19;130107;-56
2022/06/15 07:50:35;;;;;;;1.65;0.80;;;;;;;21.16;37.63;101779.06;16145144;19;129151;-56
2022/06/15 07:55:57;;;;;;;3.00;0.70;;;;;;;21.17;37.72;101786.28;16145052;19;129862;-54
2022/06/15 08:01:19;;;;;;;2.08;0.60;;;;;;;21.19;37.37;101789.69;16139169;19;130548;-56
2022/06/15 08:06:46;;;;;;;1.92;0.60;;;;;;;21.21;37.70;101789.47;16142591;19;130372;-56
2022/06/15 08:12:12;;;;;;;2.75;0.73;;;;;;;21.21;37.57;101784.72;16143709;19;131588;-55
2022/06/15 08:17:55;;;;;;;1.45;0.60;;;;;;;21.22;37.87;101778.06;16193119;19;129375;-52
2022/06/15 08:23:22;;;;;;;1.83;0.70;;;;;;;21.23;37.33;101770.59;16215458;19;130236;-59
2022/06/15 08:28:50;;;;;;;2.65;0.90;;;;;;;21.23;37.56;101767.81;16216273;19;128523;-52
2022/06/15 08:34:12;;;;;;;3.33;1.10;;;;;;;21.25;37.50;101770.34;16215941;19;129523;-51
2022/06/15 08:39:34;;;;;;;4.68;1.17;;;;;;;21.24;37.42;101769.47;16224957;19;129060;-55
2022/06/15 08:45:07;;;;;;;3.22;0.82;;;;;;;21.28;37.57;101761.50;16222868;19;128449;-55
2022/06/15 08:50:37;;;;;;;2.22;0.70;;;;;;;21.26;37.74;101778.41;16227450;19;127707;-55
2022/06/15 08:56:01;;;;;;;1.70;0.73;;;;;;;21.27;37.87;101768.16;16227751;19;128369;-54
2022/06/15 09:01:53;;;;;;;2.58;0.77;;;;;;;21.28;37.85;101761.50;16225110;19;128928;-54
2022/06/15 09:07:35;;;;;;;2.67;1.00;;;;;;;21.29;37.65;101754.84;16211704;19;129334;-56
2022/06/15 09:13:20;;;;;;;2.47;0.75;;;;;;;21.30;37.66;101767.63;16219524;19;128401;-55
2022/06/15 09:18:46;;;;;;;2.97;0.65;;;;;;;21.27;37.65;101765.38;16219541;19;129532;-54
2022/06/15 09:24:24;;;;;;;1.48;0.77;;;;;;;21.30;37.52;101760.16;16210186;19;128938;-55
2022/06/15 09:29:56;;;;;;;2.15;0.90;;;;;;;21.29;37.47;101761.25;16214873;19;129500;-54
2022/06/15 09:35:31;;;;;;;4.90;0.98;;;;;;;21.30;37.61;101770.44;16217113;19;129138;-54
2022/06/15 09:40:58;;;;;;;7.15;1.00;;;;;;;21.30;37.54;101770.44;16210000;19;128727;-55
2022/06/15 09:46:19;;;;;;;4.38;0.70;;;;;;;21.30;37.89;101768.50;16208988;19;129745;-53
2022/06/15 09:51:44;;;;;;;6.38;1.02;;;;;;;21.31;38.00;101764.63;16218228;19;130158;-55
2022/06/15 09:57:06;;;;;;;2.53;0.80;;;;;;;21.31;37.93;101770.19;16150629;19;130908;-54
2022/06/15 10:02:34;;;;;;;6.13;1.10;;;;;;;21.32;38.13;101768.25;16146365;19;130150;-56
2022/06/15 10:08:00;;;;;;;6.30;1.15;;;;;;;21.31;37.72;101769.34;16141792;19;130261;-51
2022/06/15 10:13:21;;;;;;;3.83;1.13;;;;;;;21.30;38.02;101767.63;16141094;19;129485;-54
2022/06/15 10:18:55;;;;;;;3.78;1.02;;;;;;;21.33;37.85;101756.03;16144574;19;130206;-55
2022/06/15 10:24:29;;;;;;;4.15;1.00;;;;;;;21.32;37.71;101765.47;16142631;19;129561;-55
2022/06/15 10:30:03;;;;;;;2.30;0.88;;;;;;;21.33;38.15;101756.03;16146311;19;128905;-56
2022/06/15 10:35:27;;;;;;;3.13;0.90;;;;;;;21.31;38.15;101750.72;16146548;19;129253;-55
2022/06/15 10:41:47;;;;;;;2.38;0.80;;;;;;;21.32;38.00;101737.63;16144689;19;128881;-56
2022/06/15 10:46:57;;;;;;;2.70;0.90;;;;;;;21.34;38.08;101729.88;16138894;19;129252;-54
2022/06/15 10:52:40;;;;;;;6.75;1.00;;;;;;;21.33;37.80;101722.63;16143698;19;129305;-56
2022/06/15 11:04:16;;;;;;;4.53;1.25;;;;;;;21.32;38.00;101715.38;16139763;19;130081;-59
2022/06/15 11:10:02;;;;;;;3.83;1.17;;;;;;;21.31;38.20;101720.09;16142333;19;128847;-52
2022/06/15 11:18:01;;;;;;;;;;;;;;;21.29;38.17;101722.28;16140312;19;129514;-56
2022/06/15 11:21:19;;;;;;;3.65;1.30;;;;;;;21.33;38.22;101728.19;16140921;19;129446;-54
2022/06/15 11:26:57;;;;;;;3.22;1.23;;;;;;;21.34;38.25;101718.75;16142026;19;131195;-55
2022/06/15 11:32:37;;;;;;;3.10;0.80;;;;;;;21.34;37.80;101713.19;16141271;19;128837;-56
2022/06/15 11:38:20;;;;;;;3.22;0.80;;;;;;;21.34;38.16;101702.91;16139495;19;129452;-55
2022/06/15 11:43:45;;;;;;;4.03;0.80;;;;;;;21.33;38.25;101701.22;16135616;19;129244;-56
2022/06/15 11:49:09;;;;;;;5.73;1.20;;;;;;;21.34;37.90;101702.06;16139363;19;129005;-56
2022/06/15 11:54:53;;;;;;;3.08;1.00;;;;;;;21.36;37.88;101699.88;16138223;19;128853;-56
2022/06/15 12:00:28;;;;;;;5.55;1.10;;;;;;;21.35;38.45;101698.19;16140572;19;129506;-56
2022/06/15 12:06:02;;;;;;;2.03;0.90;;;;;;;21.35;38.36;101698.19;16135822;19;130507;-57
2022/06/15 12:17:37;;;;;;;3.25;0.80;;;;;;;21.37;38.28;101696.00;16136927;19;133015;-56
2022/06/15 12:23:17;;;;;;;4.97;0.90;;;;;;;21.36;38.22;101689.56;16136925;19;128874;-55
2022/06/15 12:29:11;;;;;;;2.80;0.82;;;;;;;21.36;38.40;101692.38;16139430;19;129817;-57
2022/06/15 12:34:50;;;;;;;3.42;1.02;;;;;;;21.41;38.40;101702.78;16134415;19;129016;-57
2022/06/15 12:40:31;;;;;;;5.82;0.90;;;;;;;21.43;38.35;101706.13;16138954;19;130424;-56
2022/06/15 12:46:04;;;;;;;2.75;1.20;;;;;;;21.46;38.63;101688.94;16132374;19;129287;-56
2022/06/15 12:51:44;;;;;;;6.75;1.00;;;;;;;21.50;38.61;101687.41;16138638;19;130197;-56
2022/06/15 12:57:33;;;;;;;4.45;1.10;;;;;;;21.52;38.66;101688.00;16136244;19;129242;-57
2022/06/15 13:03:25;;;;;;;2.80;1.27;;;;;;;21.54;38.74;101686.91;16148937;19;129814;-57
2022/06/15 13:09:08;;;;;;;3.78;1.10;;;;;;;21.57;38.39;101694.75;16147128;19;130230;-57
2022/06/15 13:14:43;;;;;;;7.35;1.10;;;;;;;21.58;38.79;101683.38;16150351;19;131372;-56
2022/06/15 13:20:10;;;;;;;8.95;1.23;;;;;;;21.57;38.93;101689.19;16145116;19;129561;-58
2022/06/15 13:25:32;;;;;;;3.13;0.93;;;;;;;21.59;38.86;101676.72;16143707;19;130116;-55
2022/06/15 13:30:58;;;;;;;4.47;1.00;;;;;;;21.64;38.61;101681.53;16146422;19;129406;-58
2022/06/15 13:36:22;;;;;;;2.67;0.90;;;;;;;21.65;39.20;101674.88;16148579;19;129051;-56
2022/06/15 13:41:44;;;;;;;5.80;1.20;;;;;;;21.67;38.78;101661.53;16148137;19;129520;-56
2022/06/15 13:47:06;;;;;;;8.02;1.17;;;;;;;21.70;39.13;101682.50;16144122;19;129512;-57
2022/06/15 13:52:33;;;;;;;2.90;1.25;;;;;;;21.71;38.87;101685.00;16147131;19;129921;-57
2022/06/15 13:58:15;;;;;;;3.28;1.15;;;;;;;21.76;38.70;101682.34;16149190;19;130394;-57
2022/06/15 14:04:04;;;;;;;3.50;1.45;;;;;;;21.82;38.78;101678.53;16144949;19;129717;-56
2022/06/15 14:09:41;;;;;;;6.45;1.50;;;;;;;21.86;38.61;101678.88;16146398;19;129643;-57
2022/06/15 14:15:33;;;;;;;5.40;1.73;;;;;;;21.91;38.45;101683.72;16143076;19;128824;-56
2022/06/15 14:20:56;;;;;;;7.47;1.70;;;;;;;21.89;38.18;101680.34;16144776;19;128993;-56
2022/06/15 14:26:20;;;;;;;5.72;2.00;;;;;;;21.92;37.79;101674.25;16134426;19;129359;-57
2022/06/15 14:31:45;;;;;;;3.85;1.35;;;;;;;21.94;37.82;101680.41;16142098;19;129643;-55
2022/06/15 14:37:10;;;;;;;9.40;1.47;;;;;;;21.94;37.89;101669.28;16145659;19;129004;-57
2022/06/15 14:42:56;;;;;;;4.15;1.63;;;;;;;21.94;37.62;101669.28;16142156;19;129560;-57
2022/06/15 14:48:27;;;;;;;4.72;1.58;;;;;;;21.96;37.53;101669.88;16141616;19;129226;-56
2022/06/15 14:53:55;;;;;;;8.88;1.80;;;;;;;21.97;37.60;101660.41;16140130;19;129367;-57
2022/06/15 14:59:19;;;;;;;5.50;1.40;;;;;;;21.97;37.81;101654.84;16137455;19;129745;-56
2022/06/15 15:04:47;;;;;;;11.20;2.07;;;;;;;21.98;37.83;101653.75;16139344;19;129249;-54
2022/06/15 15:10:26;;;;;;;4.82;1.83;;;;;;;21.99;37.76;101652.66;16139633;19;129456;-55
2022/06/15 15:15:54;;;;;;;4.53;1.58;;;;;;;21.99;38.04;101661.00;16141978;19;129659;-55
2022/06/15 15:21:29;;;;;;;5.85;1.60;;;;;;;22.01;38.03;101650.47;16138311;19;130365;-57
2022/06/15 15:27:00;;;;;;;3.73;1.80;;;;;;;21.99;37.97;101649.88;16134953;19;129307;-57
2022/06/15 15:38:17;;;;;;;6.13;2.03;;;;;;;21.98;38.02;101662.13;16140948;19;129761;-56
2022/06/15 15:43:40;;;;;;;7.40;1.80;;;;;;;21.99;38.10;101652.66;16134166;19;130315;-55
2022/06/15 15:49:03;;;;;;;6.10;1.67;;;;;;;21.99;38.20;101641.50;16140518;19;130774;-56
2022/06/15 15:54:25;;;;;;;4.40;1.52;;;;;;;21.99;38.13;101647.09;16133488;19;129774;-56
2022/06/15 15:59:51;;;;;;;4.68;1.60;;;;;;;22.01;37.94;101644.91;16132984;19;129603;-51
2022/06/15 16:05:16;;;;;;;5.80;2.20;;;;;;;22.06;38.65;101631.03;16127642;19;129861;-61
2022/06/15 16:10:42;;;;;;;9.00;3.43;;;;;;;22.15;39.02;101622.28;16133654;19;129516;-54
2022/06/15 16:16:05;;;;;;;12.95;3.15;;;;;;;22.19;38.65;101623.44;16137912;19;130232;-56
2022/06/15 16:21:28;;;;;;;14.05;3.35;;;;;;;22.23;38.77;101619.91;16137779;19;130429;-56
2022/06/15 16:26:50;;;;;;;9.52;3.30;;;;;;;22.26;38.85;101621.38;16131668;19;129500;-54
2022/06/15 16:32:12;;;;;;;13.02;3.17;;;;;;;22.27;39.14;101611.91;16135924;19;130740;-55
2022/06/15 16:37:34;;;;;;;11.02;3.00;;;;;;;22.28;39.00;101616.34;16146530;19;130443;-56
2022/06/15 16:42:58;;;;;;;8.20;2.40;;;;;;;22.27;39.47;101620.28;16149741;19;130020;-56
2022/06/15 16:48:20;;;;;;;9.85;2.50;;;;;;;22.26;38.97;101625.00;16145403;19;129452;-54
2022/06/15 16:53:43;;;;;;;6.00;2.25;;;;;;;22.27;38.88;101625.84;16146268;19;130056;-56
2022/06/15 16:59:08;;;;;;;9.20;2.63;;;;;;;22.26;38.98;101613.00;16150644;19;130474;-55
2022/06/15 17:04:30;;;;;;;6.83;2.17;;;;;;;22.25;38.98;101616.91;16149078;19;129323;-57
2022/06/15 17:09:53;;;;;;;5.22;1.88;;;;;;;22.26;39.13;101621.38;16148513;19;128950;-56
2022/06/15 17:15:15;;;;;;;6.65;1.83;;;;;;;22.26;38.94;101610.22;16148764;19;129542;-56
2022/06/15 17:20:37;;;;;;;4.47;2.10;;;;;;;22.26;38.64;101613.84;16147499;19;130200;-56
2022/06/15 17:26:00;;;;;;;4.88;1.90;;;;;;;22.26;38.39;101605.47;16143821;19;129466;-56
2022/06/15 17:31:23;;;;;;;4.93;1.70;;;;;;;22.26;38.46;101608.25;16137701;19;129139;-56
2022/06/15 17:36:45;;;;;;;8.43;2.10;;;;;;;22.26;38.09;101613.84;16142901;19;129793;-58
2022/06/15 17:42:07;;;;;;;12.30;1.80;;;;;;;22.27;38.21;101620.28;16144254;19;130816;-58
2022/06/15 17:47:30;;;;;;;4.30;1.73;;;;;;;22.29;38.27;101634.78;16137375;19;129499;-59
2022/06/15 17:52:52;;;;;;;4.90;1.50;;;;;;;22.31;38.14;101631.75;16142949;19;129295;-57
2022/06/15 17:58:14;;;;;;;7.45;1.80;;;;;;;22.34;37.94;101629.28;16146025;19;130241;-58
2022/06/15 18:03:37;;;;;;;4.75;1.38;;;;;;;22.36;38.17;101618.75;16144756;19;128882;-54
2022/06/15 18:08:59;;;;;;;5.55;1.40;;;;;;;22.39;38.00;101607.09;16141733;19;130107;-55
2022/06/15 18:14:25;;;;;;;2.67;1.27;;;;;;;22.40;38.14;101593.97;16144252;19;129247;-58
2022/06/15 18:19:52;;;;;;;10.25;1.40;;;;;;;22.41;38.29;101596.50;16140010;19;130693;-56
2022/06/15 18:25:15;;;;;;;17.95;1.90;;;;;;;22.43;38.74;101597.09;16134366;19;130434;-56
2022/06/15 18:30:37;;;;;;;15.45;1.75;;;;;;;22.46;38.67;101606.91;16141771;19;129701;-56
2022/06/15 18:35:59;;;;;;;7.47;1.65;;;;;;;22.47;38.32;101607.75;16145982;19;130076;-56
2022/06/15 18:41:24;;;;;;;11.30;1.67;;;;;;;22.48;38.14;101615.00;16140174;19;129497;-56
2022/06/15 18:52:29;;;;;;;8.55;1.65;;;;;;;22.46;38.76;101623.63;16138505;19;129545;-56
2022/06/15 18:57:55;;;;;;;6.47;1.53;;;;;;;22.43;38.52;101624.97;16139835;19;131778;-54
2022/06/15 19:03:17;;;;;;;11.85;1.65;;;;;;;22.42;38.79;101628.84;16139531;19;130520;-54
2022/06/15 19:08:40;;;;;;;4.38;1.33;;;;;;;22.42;38.48;101617.69;16135215;19;131049;-56
2022/06/15 19:14:04;;;;;;;10.48;1.60;;;;;;;22.42;38.70;101617.69;16138183;19;129749;-57
2022/06/15 19:19:26;;;;;;;14.05;1.85;;;;;;;22.41;39.13;101626.34;16141035;19;129488;-56
2022/06/15 19:24:48;;;;;;;9.35;1.40;;;;;;;22.38;38.89;101633.28;16137416;19;130558;-55
2022/06/15 19:30:11;;;;;;;6.50;1.05;;;;;;;22.38;39.17;101655.56;16139526;19;129968;-57
2022/06/15 19:35:33;;;;;;;10.90;1.30;;;;;;;22.38;39.16;101666.72;16139852;19;129910;-54
2022/06/15 19:40:55;;;;;;;7.80;1.15;;;;;;;22.37;38.98;101662.25;16136602;19;129699;-56
2022/06/15 19:46:18;;;;;;;6.15;1.27;;;;;;;22.36;39.01;101663.34;16130503;19;130185;-56
2022/06/15 19:51:40;;;;;;;7.97;1.35;;;;;;;22.34;38.78;101665.53;16134080;19;129531;-55
2022/06/15 19:57:04;;;;;;;9.63;1.75;;;;;;;22.33;39.20;101668.59;16134076;19;130884;-55
2022/06/15 20:02:26;;;;;;;20.00;1.70;;;;;;;22.29;38.97;101687.75;16134011;19;128887;-55
2022/06/15 20:07:48;;;;;;;10.68;1.58;;;;;;;22.27;39.09;101706.69;16127638;19;130969;-56
2022/06/15 20:13:10;;;;;;;5.50;1.50;;;;;;;22.20;38.63;101703.16;16134256;19;130079;-57
2022/06/15 20:18:32;;;;;;;8.70;1.30;;;;;;;22.16;38.85;101690.81;16131798;19;130085;-58
2022/06/15 20:23:54;;;;;;;4.88;1.20;;;;;;;22.13;39.05;101690.25;16132013;19;131139;-57
2022/06/15 20:29:23;;;;;;;8.48;1.60;;;;;;;22.12;38.87;101690.47;16131236;19;129373;-57
2022/06/15 20:34:45;;;;;;;5.28;1.25;;;;;;;22.08;38.65;101698.50;16132180;19;129763;-56
2022/06/15 20:40:08;;;;;;;4.20;1.40;;;;;;;22.10;38.80;101703.81;16131946;19;129360;-56
2022/06/15 20:45:32;;;;;;;6.80;1.23;;;;;;;22.10;38.73;101707.47;16127163;19;129544;-57
2022/06/15 20:50:57;;;;;;;4.20;1.20;;;;;;;22.09;38.92;101719.72;16132708;19;130402;-57
2022/06/15 21:02:02;;;;;;;3.25;1.38;;;;;;;22.07;38.89;101719.09;16128497;19;132105;-57
2022/06/15 21:07:26;;;;;;;2.57;1.00;;;;;;;22.05;38.66;101723.25;16124417;19;130455;-57
2022/06/15 21:18:49;;;;;;;3.45;1.20;;;;;;;22.01;38.72;101745.19;16117842;19;129128;-57
2022/06/15 21:24:11;;;;;;;6.38;0.95;;;;;;;22.01;38.76;101730.41;16126141;19;129653;-55
2022/06/15 21:29:34;;;;;;;3.58;1.13;;;;;;;21.99;38.79;101755.75;16136342;19;131079;-57
2022/06/15 21:34:56;;;;;;;1.13;0.90;;;;;;;21.98;38.83;101754.06;16137372;19;129022;-57
2022/06/15 21:40:19;;;;;;;1.55;0.85;;;;;;;21.97;38.80;101752.34;16138664;19;129315;-57
2022/06/15 21:45:45;;;;;;;2.88;1.00;;;;;;;21.96;39.16;101736.72;16131130;19;129642;-56
2022/06/15 21:51:09;;;;;;;3.35;1.00;;;;;;;21.94;38.80;101750.91;16143204;19;130504;-54
2022/06/15 21:56:32;;;;;;;2.65;0.90;;;;;;;21.92;39.04;101753.09;16142464;19;130532;-56
2022/06/15 22:01:53;;;;;;;1.75;0.90;;;;;;;21.93;38.82;101751.16;16145534;19;129229;-58
2022/06/15 22:07:16;;;;;;;1.42;0.70;;;;;;;21.91;39.14;101751.41;16139890;19;129387;-57
2022/06/15 22:12:41;;;;;;;2.13;1.00;;;;;;;21.91;38.89;101757.00;16143569;19;129785;-56
2022/06/15 22:18:03;;;;;;;6.97;1.03;;;;;;;21.89;39.18;101747.19;16143566;19;128975;-54
2022/06/15 22:23:25;;;;;;;1.45;0.85;;;;;;;21.88;39.16;101745.50;16144719;19;130010;-57
2022/06/15 22:28:47;;;;;;;1.55;1.00;;;;;;;21.87;39.41;101749.38;16139406;19;129240;-58
2022/06/15 22:34:09;;;;;;;2.42;1.10;;;;;;;21.86;39.51;101748.50;16142819;19;129051;-56
2022/06/15 22:39:30;;;;;;;2.60;1.00;;;;;;;21.85;39.32;101744.03;16140653;19;129388;-57
2022/06/15 22:44:52;;;;;;;2.97;0.90;;;;;;;21.85;39.31;101734.84;16138566;19;129384;-57
2022/06/15 22:55:56;;;;;;;1.40;0.63;;;;;;;21.82;39.39;101753.75;16138436;19;129469;-57
2022/06/15 23:01:22;;;;;;;2.08;0.60;;;;;;;21.82;39.30;101748.16;16140076;19;131325;-57
2022/06/15 23:06:45;;;;;;;2.22;0.70;;;;;;;21.80;39.57;101743.94;16137795;19;129225;-57
2022/06/15 23:12:07;;;;;;;2.08;0.70;;;;;;;21.81;39.39;101752.06;16141013;19;130235;-54
2022/06/15 23:17:29;;;;;;;2.22;0.98;;;;;;;21.80;39.49;101761.50;16139953;19;129297;-57
2022/06/15 23:22:53;;;;;;;1.35;0.70;;;;;;;21.80;39.28;101767.06;16140064;19;132323;-57
2022/06/15 23:28:15;;;;;;;0.93;0.60;;;;;;;21.79;39.14;101782.09;16134560;19;128946;-56
2022/06/15 23:33:38;;;;;;;2.20;0.88;;;;;;;21.78;39.23;101774.84;16137056;19;128948;-57
2022/06/15 23:39:00;;;;;;;4.57;1.20;;;;;;;21.77;39.46;101778.72;16139710;19;129482;-56
2022/06/15 23:44:27;;;;;;;0.70;0.70;;;;;;;21.76;39.65;101768.69;16133917;19;129774;-57
2022/06/15 23:49:54;;;;;;;3.53;0.95;;;;;;;21.76;39.60;101763.09;16138668;19;129297;-56
2022/06/15 23:55:16;;;;;;;1.45;0.52;;;;;;;21.74;39.58;101751.38;16137774;19;131471;-57
